METAR Data
IDs: Format: Raw Decoded Include TAF

Data at: 1019 UTC 26 Sep 2018

K9A5 261015Z AUTO 00000KT 4SM SCT012 SCT049 OVC065 21/21 A3007 RMK AO2 T02140214
K9A5 260955Z AUTO 00000KT 4SM SCT012 BKN047 OVC080 21/21 A3008 RMK AO2 T02130213
K9A5 260935Z AUTO 00000KT 1 3/4SM SCT016 BKN050 OVC065 21/21 A3008 RMK AO2 T02140214
K9A5 260915Z AUTO 00000KT 3SM SCT016 BKN043 OVC090 22/22 A3008 RMK AO2 T02150215
K9A5 260855Z AUTO 00000KT 1SM BKN015 OVC027 22/22 A3007 RMK AO2 VIS 1/2V5 T02150215
K9A5 260835Z AUTO 00000KT 4SM SCT017 BKN028 OVC075 22/22 A3008 RMK AO2 T02160216
K9A5 260815Z AUTO 00000KT 4SM SCT017 BKN065 OVC100 22/22 A3008 RMK AO2 T02160216
K9A5 260755Z AUTO 00000KT 4SM SCT016 BKN090 OVC110 22/22 A3008 RMK AO2 T02160216
K9A5 260735Z AUTO 00000KT 4SM SCT034 BKN080 OVC120 22/22 A3009 RMK AO2 T02180218
K9A5 260715Z AUTO 00000KT 3SM SCT032 SCT044 OVC080 22/22 A3010 RMK AO2 T02200220
K9A5 260655Z AUTO 00000KT 4SM SCT032 SCT080 OVC090 22/22 A3010 RMK AO2 T02200220
K9A5 260635Z AUTO 00000KT 2 1/2SM SCT041 OVC080 22/22 A3010 RMK AO2 T02210221
K9A5 260615Z AUTO 00000KT 3SM SCT017 BKN050 OVC090 22/22 A3010 RMK AO2 T02210221
K9A5 260555Z AUTO 00000KT 3SM SCT017 SCT050 OVC090 22/22 A3010 RMK AO2 T02210220 10231 20221 402820197
K9A5 260535Z AUTO 00000KT 4SM SCT021 BKN028 OVC090 22/22 A3010 RMK AO2 T02220220
K9A5 260515Z AUTO 22004KT 5SM SCT008 SCT012 OVC024 22/22 A3011 RMK AO2 T02230221
K9A5 260455Z AUTO 17006KT 1/4SM BKN008 OVC013 23/22 A3012 RMK AO2 T02250222
K9A5 260435Z AUTO 24003KT 3SM SCT015 BKN029 OVC060 23/23 A3012 RMK AO2 T02300225
K9A5 260415Z AUTO 00000KT 7SM SCT031 BKN043 OVC070 23/22 A3012 RMK AO2 T02270224
K9A5 260355Z AUTO 00000KT 7SM BKN043 BKN050 OVC065 23/22 A3012 RMK AO2 T02270223
K9A5 260335Z AUTO 00000KT 10SM SCT043 SCT050 23/23 A3011 RMK AO2 T02280225
K9A5 260315Z AUTO 00000KT 7SM SCT055 SCT070 23/23 A3011 RMK AO2 T02260225
K9A5 260255Z AUTO 18004KT 4SM SCT055 SCT070 BKN090 23/23 A3012 RMK AO2 T02250225
K9A5 260235Z AUTO 00000KT 5SM SCT055 BKN065 OVC090 23/23 A3012 RMK AO2 T02260226
K9A5 260215Z AUTO 00000KT 7SM BKN065 OVC070 23/23 A3012 RMK AO2 T02260226
K9A5 260155Z AUTO 00000KT 4SM BKN065 OVC090 22/22 A3011 RMK AO2 T02230223
K9A5 260135Z AUTO 00000KT 5SM SCT065 SCT090 23/23 A3011 RMK AO2 T02250225
K9A5 260115Z AUTO 00000KT 3SM SCT090 22/22 A3010 RMK AO2 T02220221
K9A5 260055Z AUTO 00000KT 5SM BKN090 23/22 A3008 RMK AO2 T02250222
K9A5 260035Z AUTO 00000KT 2 1/2SM CLR 22/22 A3007 RMK AO2 T02230220
K9A5 260015Z AUTO 00000KT 3SM CLR 23/22 A3007 RMK AO2 T02260220
K9A5 252355Z AUTO 00000KT 3SM CLR 23/22 A3007 RMK AO2 T02310224 10282 20230
K9A5 252335Z AUTO 00000KT 3SM CLR 23/22 A3007 RMK AO2 T02310220
K9A5 252315Z AUTO 00000KT 4SM CLR 23/22 A3006 RMK AO2 T02340221
K9A5 252255Z AUTO 00000KT 5SM CLR 24/22 A3006 RMK AO2 T02380222
K9A5 252235Z AUTO 16003KT 4SM CLR 25/23 A3006 RMK AO2 T02470225
K9A5 252215Z AUTO 00000KT 7SM SCT080 25/23 A3007 RMK AO2 T02540226
K9A5 252155Z AUTO 00000KT 7SM SCT080 26/23 A3007 RMK AO2 T02560227
K9A5 252135Z AUTO 00000KT 5SM CLR 26/23 A3007 RMK AO2 T02550229
K9A5 252115Z AUTO 15003KT 5SM CLR 26/24 A3008 RMK AO2 T02580237
K9A5 252055Z AUTO 00000KT 5SM SCT030 SCT038 SCT047 25/24 A3008 RMK AO2 T02490236
K9A5 252035Z AUTO 24003KT 3SM SCT017 BKN047 OVC060 24/23 A3009 RMK AO2 T02370226
K9A5 252015Z AUTO 28004KT 3/4SM OVC015 23/22 A3010 RMK AO2 T02340222
K9A5 251955Z AUTO 00000KT 1/2SM BKN010 OVC017 24/22 A3010 RMK AO2 VIS 1/4V2 1/2 T02350218
K9A5 251935Z AUTO 24006KT 1/2SM BKN012 OVC030 25/22 A3010 RMK AO2 T02540218
K9A5 251915Z AUTO 20003KT 7SM SCT031 SCT041 BKN090 28/22 A3010 RMK AO2 T02820221
K9A5 251855Z AUTO 19005KT 7SM SCT029 BKN085 OVC120 27/22 A3011 RMK AO2 T02740217
K9A5 251835Z AUTO 00000KT 5SM SCT024 BKN032 OVC070 26/22 A3012 RMK AO2 T02570222
K9A5 251815Z AUTO 18006KT 5SM SCT022 SCT029 BKN075 27/22 A3013 RMK AO2 T02660219
K9A5 251755Z AUTO 00000KT 7SM SCT022 BKN031 BKN048 26/23 A3013 RMK AO2 T02570228 10263 20212
K9A5 251735Z AUTO 00000KT 10SM SCT019 BKN041 OVC070 26/23 A3014 RMK AO2 T02630229
K9A5 251715Z AUTO 00000KT 10SM BKN019 BKN025 OVC043 26/23 A3015 RMK AO2 T02560225
K9A5 251655Z AUTO 18004KT 10SM BKN017 BKN023 BKN030 25/23 A3015 RMK AO2 T02520228
K9A5 251635Z AUTO 00000KT 10SM OVC016 24/23 A3017 RMK AO2 T02410227
K9A5 251615Z AUTO 16004KT 7SM OVC016 24/23 A3017 RMK AO2 T02360229
K9A5 251555Z AUTO 16005KT 7SM OVC014 23/23 A3017 RMK AO2 T02320230
K9A5 251535Z AUTO 00000KT 4SM SCT008 OVC013 23/23 A3017 RMK AO2 T02270226
K9A5 251515Z AUTO 17005KT 4SM OVC011 23/23 A3017 RMK AO2 T02250225
K9A5 251455Z AUTO 17003KT 5SM SCT009 OVC013 23/23 A3018 RMK AO2 T02250225
K9A5 251435Z AUTO 17004KT 5SM OVC011 22/22 A3017 RMK AO2 T02230223
K9A5 251415Z AUTO 00000KT 5SM OVC009 22/22 A3017 RMK AO2 T02190219
K9A5 251355Z AUTO 00000KT 7SM BKN011 OVC016 22/22 A3017 RMK AO2 T02170217
K9A5 251335Z AUTO 00000KT 5SM BKN008 OVC013 22/22 A3017 RMK AO2 T02150215
K9A5 251315Z AUTO 00000KT 7SM BKN007 OVC013 22/22 A3017 RMK AO2 T02150215
K9A5 251255Z AUTO 00000KT 3/4SM BKN009 OVC014 21/21 A3017 RMK AO2 T02130213
K9A5 251235Z AUTO 22003KT 1/2SM OVC012 21/21 A3017 RMK AO2 T02120212
K9A5 251215Z AUTO 00000KT 4SM BKN012 BKN040 OVC048 21/21 A3017 RMK AO2 T02130213
K9A5 251155Z AUTO 18003KT 5SM SCT008 BKN014 OVC043 21/21 A3016 RMK AO2 T02120212 10212 20197
K9A5 251135Z AUTO 22004KT 7SM OVC012 21/21 A3016 RMK AO2 T02110211
K9A5 251115Z AUTO 00000KT 7SM BKN012 OVC042 21/21 A3015 RMK AO2 T02100210
K9A5 251055Z AUTO 00000KT 4SM BKN010 OVC013 21/21 A3014 RMK AO2 T02070207
K9A5 251035Z AUTO 00000KT 7SM OVC013 21/21 A3014 RMK AO2 T02060206
K9A5 251015Z AUTO 00000KT 5SM OVC011 21/21 A3014 RMK AO2 T02050205
K9A5 250955Z AUTO 00000KT 10SM SCT008 OVC013 20/20 A3014 RMK AO2 T02040204
K9A5 250935Z AUTO 00000KT 5SM SCT006 BKN011 OVC016 20/20 A3014 RMK AO2 T02020202
K9A5 250915Z AUTO 00000KT 7SM SCT008 OVC011 20/20 A3014 RMK AO2 T02020202
K9A5 250855Z AUTO 00000KT 7SM OVC009 20/20 A3013 RMK AO2 T02010201
K9A5 250835Z AUTO 00000KT 5SM BKN009 OVC014 20/20 A3013 RMK AO2 T02010201
K9A5 250815Z AUTO 00000KT 5SM SCT010 OVC015 20/20 A3013 RMK AO2 T02010201
K9A5 250755Z AUTO 00000KT 10SM BKN011 OVC016 20/20 A3013 RMK AO2 T02000200
K9A5 250735Z AUTO 00000KT 10SM OVC013 20/20 A3014 RMK AO2 T01980198
K9A5 250715Z AUTO 00000KT 10SM BKN015 OVC025 20/20 A3015 RMK AO2 T01980198
K9A5 250655Z AUTO 00000KT 10SM SCT006 BKN015 OVC025 20/20 A3015 RMK AO2 T01980198
K9A5 250635Z AUTO 00000KT 10SM OVC010 20/20 A3015 RMK AO2 T01980198
K9A5 250615Z AUTO 00000KT 7SM BKN012 BKN034 OVC047 20/20 A3015 RMK AO2 T01980198
K9A5 250555Z AUTO 00000KT 5SM SCT010 BKN014 OVC047 20/20 A3015 RMK AO2 T01960196 10227 20196 402350196
K9A5 250535Z AUTO 00000KT 7SM OVC012 20/20 A3017 RMK AO2 T01970197
K9A5 250515Z AUTO 00000KT 7SM OVC012 20/20 A3017 RMK AO2 T01980198
K9A5 250455Z AUTO 00000KT 10SM SCT003 OVC014 20/20 A3017 RMK AO2 T01970197
K9A5 250435Z AUTO 00000KT 7SM SCT003 OVC020 20/20 A3018 RMK AO2 T01980198
K9A5 250415Z AUTO 00000KT 7SM BKN020 BKN036 OVC050 20/20 A3018 RMK AO2 T01980198
K9A5 250355Z AUTO 00000KT 2 1/2SM SCT036 OVC046 20/20 A3018 RMK AO2 T01980198
K9A5 250335Z AUTO 00000KT 2 1/2SM SCT022 BKN034 OVC046 20/20 A3018 RMK AO2 VIS 2V4 T01990199
K9A5 250315Z AUTO 00000KT 3SM SCT007 BKN022 OVC037 20/20 A3018 RMK AO2 T02000200
K9A5 250255Z AUTO 16003KT 1SM OVC017 20/20 A3017 RMK AO2 T02010201
K9A5 250235Z AUTO 19004KT 1SM OVC015 20/20 A3016 RMK AO2 T02000200
K9A5 250215Z AUTO 17005KT 1/2SM BKN017 OVC025 20/20 A3016 RMK AO2 T02020201
K9A5 250155Z AUTO 19006KT 1SM BKN008 OVC021 21/20 A3014 RMK AO2 T02060204
K9A5 250135Z AUTO 21016G25KT 1/2SM OVC011 21/20 A3012 RMK AO2 T02050201
K9A5 250115Z AUTO 00000KT 2 1/2SM SCT019 BKN029 OVC049 22/22 A3010 RMK AO2 VIS 1V5 T02200220
K9A5 250055Z AUTO 00000KT 2 1/2SM SCT019 BKN035 OVC060 22/22 A3009 RMK AO2 VIS 1V5 T02240224
K9A5 250035Z AUTO 00000KT 5SM SCT039 SCT055 BKN070 23/23 A3008 RMK AO2 T02260225
K9A5 250015Z AUTO 00000KT 7SM SCT031 SCT044 BKN055 23/23 A3008 RMK AO2 T02260225
K9A5 242355Z AUTO 00000KT 4SM SCT004 BKN030 OVC045 23/23 A3008 RMK AO2 T02270226 10235 20214
K9A5 242335Z AUTO 00000KT 2SM BKN004 OVC032 23/23 A3008 RMK AO2 T02300227
K9A5 242315Z AUTO 00000KT 4SM SCT004 BKN037 OVC065 23/23 A3007 RMK AO2 T02300228
K9A5 242255Z AUTO 00000KT 2 1/2SM SCT037 BKN048 OVC100 23/23 A3007 RMK AO2 T02310229
K9A5 242235Z AUTO 00000KT 5SM SCT004 BKN050 OVC070 24/23 A3007 RMK AO2 T02350231